Time;durP1;ratioP1;P1;durP2;ratioP2;P2;SDS_P1;SDS_P2;PMS_P1;PMS_P2;Temp;Humidity;BMP_temperature;BMP_pressure;BME280_temperature;BME280_humidity;BME280_pressure;Samples;Min_cycle;Max_cycle;Signal;HPM_P1;HPM_P2
2021/08/24 00:01:19;;;;;;;5.50;3.10;;;16.20;99.90;;;;;;4892031;29;20028;-94
2021/08/24 00:03:45;;;;;;;6.05;2.60;;;16.20;99.90;;;;;;4891563;29;20083;-95
2021/08/24 00:06:11;;;;;;;4.05;2.92;;;16.10;99.90;;;;;;4892049;29;20024;-94
2021/08/24 00:08:40;;;;;;;6.47;2.75;;;16.10;99.90;;;;;;4902583;29;20037;-96
2021/08/24 00:11:10;;;;;;;6.87;2.87;;;16.10;99.90;;;;;;4885511;29;20051;-96
2021/08/24 00:13:36;;;;;;;5.93;2.55;;;16.10;99.90;;;;;;4882101;29;20307;-94
2021/08/24 00:16:01;;;;;;;3.63;2.30;;;16.10;99.90;;;;;;4881954;29;20491;-94
2021/08/24 00:18:27;;;;;;;5.38;2.15;;;16.10;99.90;;;;;;4881792;29;20039;-94
2021/08/24 00:20:55;;;;;;;6.47;2.35;;;16.10;99.90;;;;;;4881568;29;20486;-95
2021/08/24 00:23:26;;;;;;;3.85;1.88;;;16.10;99.90;;;;;;4881919;29;20376;-95
2021/08/24 00:25:53;;;;;;;4.68;2.40;;;16.10;99.90;;;;;;4891285;29;20027;-93
2021/08/24 00:28:20;;;;;;;4.95;2.45;;;16.10;99.90;;;;;;4897763;29;20036;-95
2021/08/24 00:30:46;;;;;;;2.78;2.20;;;16.10;99.90;;;;;;4906486;29;20144;-96
2021/08/24 00:33:13;;;;;;;3.67;1.95;;;16.20;99.90;;;;;;4899785;29;20096;-94
2021/08/24 00:35:41;;;;;;;4.18;2.08;;;16.10;99.90;;;;;;4914986;29;20594;-96
2021/08/24 00:38:09;;;;;;;3.10;2.03;;;16.10;99.90;;;;;;4897458;29;20072;-95
2021/08/24 00:40:35;;;;;;;3.17;2.13;;;16.10;99.90;;;;;;4897434;29;20029;-94
2021/08/24 00:43:01;;;;;;;3.00;2.17;;;16.10;99.90;;;;;;4897264;29;20400;-96
2021/08/24 00:45:27;;;;;;;3.17;2.22;;;16.10;99.90;;;;;;4897350;29;20044;-95
2021/08/24 00:47:53;;;;;;;3.22;2.22;;;16.00;99.90;;;;;;4897680;29;20040;-96
2021/08/24 00:50:26;;;;;;;2.55;2.15;;;16.00;99.90;;;;;;4897694;29;20041;-95
2021/08/24 00:52:54;;;;;;;4.32;2.58;;;16.00;99.90;;;;;;4897616;29;20029;-96
2021/08/24 00:55:21;;;;;;;5.20;1.90;;;16.00;99.90;;;;;;4913598;29;20037;-95
2021/08/24 00:57:56;;;;;;;2.28;1.75;;;15.90;99.90;;;;;;4897473;29;20483;-95
2021/08/24 01:00:22;;;;;;;2.05;1.70;;;15.90;99.90;;;;;;4897645;29;20036;-96
2021/08/24 01:02:47;;;;;;;4.85;2.20;;;15.90;99.90;;;;;;4897458;29;20025;-95
2021/08/24 01:05:13;;;;;;;3.00;2.05;;;15.80;99.90;;;;;;4897673;29;20104;-95
2021/08/24 01:07:50;;;;;;;6.72;2.13;;;15.80;99.90;;;;;;4897577;29;20033;-95
2021/08/24 01:10:26;;;;;;;6.20;1.80;;;15.80;99.90;;;;;;4897262;29;20029;-95
2021/08/24 01:13:02;;;;;;;3.63;1.73;;;15.90;99.90;;;;;;4913298;29;20040;-95
2021/08/24 01:16:00;;;;;;;3.05;1.55;;;15.80;99.90;;;;;;4897674;29;20036;-95
2021/08/24 01:18:28;;;;;;;6.20;1.88;;;15.90;99.90;;;;;;4913159;29;20064;-95
2021/08/24 01:21:17;;;;;;;4.63;1.73;;;15.80;99.90;;;;;;4913413;29;20115;-94
2021/08/24 01:24:01;;;;;;;5.03;1.85;;;15.80;99.90;;;;;;4896800;29;20041;-95
2021/08/24 01:26:50;;;;;;;3.35;2.50;;;15.80;99.90;;;;;;4898411;29;20486;-96
2021/08/24 01:29:17;;;;;;;4.28;2.30;;;15.80;99.90;;;;;;4894232;29;20024;-95
2021/08/24 01:32:11;;;;;;;3.80;3.00;;;15.80;99.90;;;;;;4915396;29;20112;-95
2021/08/24 01:35:18;;;;;;;5.57;3.33;;;15.90;99.90;;;;;;4916807;29;20045;-95
2021/08/24 01:38:10;;;;;;;7.60;4.57;;;15.90;99.90;;;;;;4916789;29;20055;-95
2021/08/24 01:40:44;;;;;;;4.07;3.38;;;15.80;99.90;;;;;;4916533;29;20064;-95
2021/08/24 01:43:15;;;;;;;4.82;3.60;;;15.80;99.90;;;;;;4900331;29;20034;-96
2021/08/24 01:46:02;;;;;;;7.88;4.18;;;15.70;99.90;;;;;;4900221;29;20025;-94
2021/08/24 01:48:36;;;;;;;5.88;4.47;;;15.80;99.90;;;;;;4900080;29;20515;-96
2021/08/24 01:51:27;;;;;;;4.80;3.33;;;15.80;99.90;;;;;;4915934;29;20033;-96
2021/08/24 01:54:05;;;;;;;7.85;4.95;;;15.80;99.90;;;;;;4909203;29;20073;-96
2021/08/24 01:56:37;;;;;;;9.57;7.97;;;15.70;99.90;;;;;;4900264;29;20028;-96
2021/08/24 01:59:12;;;;;;;12.55;8.45;;;15.80;99.90;;;;;;4915513;29;20491;-95
2021/08/24 02:01:44;;;;;;;10.60;8.23;;;15.70;99.90;;;;;;4900114;29;20116;-96
2021/08/24 02:04:20;;;;;;;14.18;9.93;;;15.70;99.90;;;;;;4900478;29;20040;-95
2021/08/24 02:06:48;;;;;;;15.00;10.57;;;15.70;99.90;;;;;;4900765;29;20037;-96
2021/08/24 02:09:28;;;;;;;13.95;9.90;;;15.70;99.90;;;;;;4902723;29;20056;-95
2021/08/24 02:11:54;;;;;;;14.80;10.05;;;15.70;99.90;;;;;;4906996;29;20024;-96
2021/08/24 02:14:21;;;;;;;16.58;10.15;;;15.70;99.90;;;;;;4913170;29;20054;-95
2021/08/24 02:16:48;;;;;;;15.60;10.80;;;15.70;99.90;;;;;;4911633;29;20479;-95
2021/08/24 02:19:28;;;;;;;12.68;9.88;;;15.70;99.90;;;;;;4900905;29;20076;-95
2021/08/24 02:22:03;;;;;;;6.72;5.97;;;15.70;99.90;;;;;;4902753;29;20032;-95
2021/08/24 02:24:36;;;;;;;4.20;3.22;;;15.70;99.90;;;;;;4900363;29;20029;-94
2021/08/24 02:27:07;;;;;;;4.72;3.28;;;15.60;99.90;;;;;;4900486;29;20482;-95
2021/08/24 02:29:34;;;;;;;3.85;2.38;;;15.60;99.90;;;;;;4902316;29;20037;-95
2021/08/24 02:32:11;;;;;;;5.70;2.80;;;15.60;99.90;;;;;;4922089;29;20036;-95
2021/08/24 02:34:50;;;;;;;2.38;2.17;;;15.50;99.90;;;;;;4922098;29;20047;-94
2021/08/24 02:37:35;;;;;;;3.42;3.13;;;15.50;99.90;;;;;;4922248;29;20062;-95
2021/08/24 02:40:19;;;;;;;2.85;2.55;;;15.50;99.90;;;;;;4922187;29;20028;-96
2021/08/24 02:42:54;;;;;;;3.88;2.80;;;15.50;99.90;;;;;;4921076;29;20030;-95
2021/08/24 02:45:41;;;;;;;5.15;2.83;;;15.50;99.90;;;;;;4922229;29;20031;-95
2021/08/24 02:48:10;;;;;;;2.55;2.35;;;15.50;99.90;;;;;;4937684;29;20024;-95
2021/08/24 02:50:37;;;;;;;4.43;3.25;;;15.50;99.90;;;;;;4921831;29;20038;-95
2021/08/24 02:53:04;;;;;;;5.28;4.20;;;15.50;99.90;;;;;;4921708;29;20114;-95
2021/08/24 02:55:29;;;;;;;6.50;3.70;;;15.40;99.90;;;;;;4921570;29;20039;-96
2021/08/24 02:57:56;;;;;;;5.65;3.90;;;15.40;99.90;;;;;;4921299;29;20635;-96
2021/08/24 03:00:22;;;;;;;3.00;2.70;;;15.40;99.90;;;;;;4921834;29;20039;-96
2021/08/24 03:02:47;;;;;;;4.55;3.83;;;15.40;99.90;;;;;;4921507;29;20024;-94
2021/08/24 03:05:13;;;;;;;7.57;5.32;;;15.40;99.90;;;;;;4921641;29;20442;-96
2021/08/24 03:07:41;;;;;;;6.57;5.15;;;15.40;99.90;;;;;;4921877;29;20087;-96
2021/08/24 03:10:14;;;;;;;6.20;4.55;;;15.40;99.90;;;;;;4921736;29;20050;-96
2021/08/24 03:13:09;;;;;;;5.18;4.05;;;15.40;99.90;;;;;;4921330;29;20031;-96
2021/08/24 03:15:53;;;;;;;5.68;3.65;;;15.40;99.90;;;;;;4860613;29;20133;-96
2021/08/24 03:18:26;;;;;;;6.07;3.28;;;15.30;99.90;;;;;;4846019;29;20038;-96
2021/08/24 03:20:57;;;;;;;3.85;2.45;;;15.30;99.90;;;;;;4845918;29;20508;-95
2021/08/24 03:23:26;;;;;;;6.72;2.90;;;15.30;99.90;;;;;;4845516;29;20096;-95
2021/08/24 03:25:53;;;;;;;7.18;2.90;;;15.30;99.90;;;;;;4845571;29;20042;-95
2021/08/24 03:28:21;;;;;;;5.10;3.05;;;15.20;99.90;;;;;;4845426;29;20124;-96
2021/08/24 03:30:48;;;;;;;5.45;3.55;;;15.20;99.90;;;;;;4845444;29;20058;-96
2021/08/24 03:33:15;;;;;;;3.58;2.85;;;15.20;99.90;;;;;;4845216;29;20065;-95
2021/08/24 03:35:41;;;;;;;4.20;2.80;;;15.20;99.90;;;;;;4845361;29;20120;-95
2021/08/24 03:38:07;;;;;;;3.00;2.33;;;15.20;99.90;;;;;;4845121;29;20133;-95
2021/08/24 03:40:33;;;;;;;2.67;2.20;;;15.20;99.90;;;;;;4845531;29;20042;-96
2021/08/24 03:42:59;;;;;;;3.15;2.22;;;15.20;99.90;;;;;;4845235;29;20163;-95
2021/08/24 03:45:25;;;;;;;5.05;1.90;;;15.20;99.90;;;;;;4845188;29;20041;-95
2021/08/24 03:47:51;;;;;;;1.98;1.77;;;15.20;99.90;;;;;;4845982;29;20090;-95
2021/08/24 03:50:17;;;;;;;2.00;1.55;;;15.20;99.90;;;;;;4847090;29;20041;-95
2021/08/24 03:52:43;;;;;;;2.10;1.40;;;15.20;99.90;;;;;;4892903;29;20493;-95
2021/08/24 03:55:10;;;;;;;2.35;1.40;;;15.20;99.90;;;;;;4931754;29;20052;-95
2021/08/24 03:57:38;;;;;;;2.13;1.50;;;15.20;99.90;;;;;;4920693;29;20079;-95
2021/08/24 04:00:06;;;;;;;2.28;1.52;;;15.30;99.90;;;;;;4920838;29;20027;-95
2021/08/24 04:02:32;;;;;;;2.65;1.70;;;15.20;99.90;;;;;;4920384;29;20083;-95
2021/08/24 04:05:01;;;;;;;2.05;1.80;;;15.20;99.90;;;;;;4920375;29;20554;-95
2021/08/24 04:07:28;;;;;;;3.65;1.80;;;15.20;99.90;;;;;;4920556;29;20038;-95
2021/08/24 04:09:54;;;;;;;3.97;1.60;;;15.10;99.90;;;;;;4920463;29;20023;-95
2021/08/24 04:12:20;;;;;;;3.17;1.60;;;15.20;99.90;;;;;;4919961;29;20034;-95
2021/08/24 04:14:46;;;;;;;2.63;1.63;;;15.20;99.90;;;;;;4920169;29;20076;-96
2021/08/24 04:17:12;;;;;;;2.97;1.40;;;15.20;99.90;;;;;;4920227;29;20110;-96
2021/08/24 04:19:38;;;;;;;1.73;1.58;;;15.20;99.90;;;;;;4920107;29;20078;-95
2021/08/24 04:22:12;;;;;;;3.45;1.70;;;15.20;99.90;;;;;;4920084;29;20027;-95
2021/08/24 04:24:38;;;;;;;1.50;1.40;;;15.20;99.90;;;;;;4920145;29;20062;-96
2021/08/24 04:27:04;;;;;;;1.65;1.50;;;15.20;99.90;;;;;;4919716;29;20502;-95
2021/08/24 04:29:30;;;;;;;5.47;2.70;;;15.10;99.90;;;;;;4919763;29;20494;-95
2021/08/24 04:31:56;;;;;;;3.53;2.35;;;15.20;99.90;;;;;;4919841;29;20046;-94
2021/08/24 04:34:22;;;;;;;2.83;2.38;;;15.10;99.90;;;;;;4919925;29;20043;-95
2021/08/24 04:36:48;;;;;;;3.65;2.58;;;15.10;99.90;;;;;;4919930;29;20477;-96
2021/08/24 04:39:13;;;;;;;5.68;2.90;;;15.10;99.90;;;;;;4919777;29;20038;-95
2021/08/24 04:41:39;;;;;;;3.92;2.72;;;15.10;99.90;;;;;;4919915;29;20035;-94
2021/08/24 04:44:05;;;;;;;8.18;4.07;;;15.10;99.90;;;;;;4919847;29;20481;-94
2021/08/24 04:46:31;;;;;;;8.18;4.50;;;15.10;99.90;;;;;;4919593;29;20023;-95
2021/08/24 04:48:56;;;;;;;6.07;4.63;;;15.10;99.90;;;;;;4919773;29;20055;-96
2021/08/24 04:51:22;;;;;;;7.40;5.35;;;15.10;99.90;;;;;;4919868;29;20087;-96
2021/08/24 04:53:48;;;;;;;10.88;5.82;;;15.10;99.90;;;;;;4919878;29;20035;-96
2021/08/24 04:56:14;;;;;;;9.30;5.40;;;15.10;99.90;;;;;;4920163;29;20036;-96
2021/08/24 04:58:40;;;;;;;6.80;4.10;;;15.10;99.90;;;;;;4919535;29;20023;-95
2021/08/24 05:01:05;;;;;;;6.45;4.03;;;15.00;99.90;;;;;;4919562;29;20071;-96
2021/08/24 05:03:31;;;;;;;5.60;3.78;;;15.00;99.90;;;;;;4919459;29;20456;-96
2021/08/24 05:05:57;;;;;;;6.60;3.20;;;15.00;99.90;;;;;;4921523;29;20028;-96
2021/08/24 05:08:23;;;;;;;10.55;5.95;;;15.00;99.90;;;;;;4923755;29;20024;-95
2021/08/24 05:10:49;;;;;;;11.40;7.07;;;15.00;99.90;;;;;;4923472;29;20040;-96
2021/08/24 05:13:15;;;;;;;11.00;6.60;;;15.00;99.90;;;;;;4923476;29;20071;-96
2021/08/24 05:15:40;;;;;;;10.10;6.35;;;15.00;99.90;;;;;;4920084;29;20032;-95
2021/08/24 05:18:06;;;;;;;12.75;7.20;;;15.00;99.90;;;;;;4904617;29;20119;-95
2021/08/24 05:20:32;;;;;;;10.60;6.70;;;15.00;99.90;;;;;;4904552;29;20028;-94
2021/08/24 05:22:58;;;;;;;9.45;6.75;;;15.00;99.90;;;;;;4904472;29;20024;-94
2021/08/24 05:25:24;;;;;;;14.27;7.60;;;15.00;99.90;;;;;;4904163;29;20558;-96
2021/08/24 05:27:50;;;;;;;12.52;6.22;;;15.00;99.90;;;;;;4936755;29;20379;-96
2021/08/24 05:30:22;;;;;;;9.70;6.35;;;14.90;99.90;;;;;;4905870;29;20055;-94
2021/08/24 05:32:48;;;;;;;11.57;6.65;;;14.90;99.90;;;;;;4928089;29;20107;-94
2021/08/24 05:35:14;;;;;;;10.75;6.50;;;14.90;99.90;;;;;;4937660;29;20040;-95
2021/08/24 05:37:40;;;;;;;9.20;6.38;;;14.90;99.90;;;;;;4920383;29;20175;-94
2021/08/24 05:40:08;;;;;;;13.65;7.25;;;14.90;99.90;;;;;;4919995;29;20493;-93
2021/08/24 05:42:34;;;;;;;11.63;6.43;;;14.90;99.90;;;;;;4919435;29;20032;-95
2021/08/24 05:44:59;;;;;;;10.45;6.00;;;14.90;99.90;;;;;;4919250;29;20045;-93
2021/08/24 05:47:29;;;;;;;10.20;5.18;;;14.90;99.90;;;;;;4918777;29;20051;-92
2021/08/24 05:49:54;;;;;;;10.57;6.10;;;14.90;99.90;;;;;;4920292;29;20040;-94
2021/08/24 05:52:20;;;;;;;11.60;6.50;;;14.80;99.90;;;;;;4919032;29;20028;-93
2021/08/24 05:54:47;;;;;;;8.18;6.00;;;14.90;99.90;;;;;;4918947;29;20042;-93
2021/08/24 05:57:16;;;;;;;16.35;8.35;;;14.90;99.90;;;;;;4919125;29;20054;-93
2021/08/24 05:59:42;;;;;;;13.60;7.25;;;14.90;99.90;;;;;;4918806;29;20127;-93
2021/08/24 06:02:07;;;;;;;10.52;5.80;;;14.90;99.90;;;;;;4919325;29;20056;-94
2021/08/24 06:04:34;;;;;;;12.25;6.40;;;14.80;99.90;;;;;;4919536;29;20040;-93
2021/08/24 06:07:00;;;;;;;10.60;6.00;;;14.80;99.90;;;;;;4919456;29;20024;-95
2021/08/24 06:09:25;;;;;;;11.43;6.22;;;14.80;99.90;;;;;;4918966;29;20036;-95
2021/08/24 06:11:52;;;;;;;10.45;6.78;;;14.80;99.90;;;;;;4919347;29;20020;-94
2021/08/24 06:14:20;;;;;;;11.73;6.25;;;14.80;99.90;;;;;;4919037;29;20043;-94
2021/08/24 06:16:47;;;;;;;9.15;5.90;;;14.90;99.90;;;;;;4922008;29;20036;-93
2021/08/24 06:19:13;;;;;;;12.55;6.00;;;14.80;99.90;;;;;;4923696;29;20020;-93
2021/08/24 06:21:39;;;;;;;10.48;5.35;;;14.80;99.90;;;;;;4927797;29;20070;-94
2021/08/24 06:24:07;;;;;;;10.90;5.55;;;14.80;99.90;;;;;;4926041;29;20412;-94
2021/08/24 06:26:33;;;;;;;10.82;5.43;;;14.80;99.90;;;;;;4927531;29;20140;-94
2021/08/24 06:28:59;;;;;;;7.55;3.85;;;14.80;99.90;;;;;;4926740;29;20461;-95
2021/08/24 06:31:26;;;;;;;5.75;3.45;;;14.90;99.90;;;;;;4925518;29;20158;-94
2021/08/24 06:33:53;;;;;;;6.60;3.35;;;14.90;99.90;;;;;;4908647;29;20032;-94
2021/08/24 06:36:21;;;;;;;8.02;3.47;;;14.90;99.90;;;;;;4908133;29;20029;-96
2021/08/24 06:38:47;;;;;;;7.93;3.47;;;15.00;99.90;;;;;;4922833;29;20558;-95
2021/08/24 06:41:14;;;;;;;7.93;3.55;;;15.00;99.90;;;;;;4922327;29;20016;-95
2021/08/24 06:43:40;;;;;;;6.85;3.60;;;15.00;99.90;;;;;;4906263;29;20028;-95
2021/08/24 06:46:06;;;;;;;6.85;3.47;;;15.10;99.90;;;;;;4923817;29;20499;-94
2021/08/24 06:48:32;;;;;;;8.85;2.97;;;15.10;99.90;;;;;;4906649;29;20048;-95
2021/08/24 06:50:58;;;;;;;5.22;2.88;;;15.10;99.90;;;;;;4922921;29;20024;-95
2021/08/24 06:53:25;;;;;;;5.50;2.90;;;15.10;99.90;;;;;;4913213;29;20084;-96
2021/08/24 06:55:50;;;;;;;4.32;2.63;;;15.20;99.90;;;;;;4922933;29;20159;-95
2021/08/24 06:58:18;;;;;;;6.93;3.22;;;15.20;99.90;;;;;;4908108;29;20107;-94
2021/08/24 07:00:48;;;;;;;4.45;2.60;;;15.20;99.90;;;;;;4906921;29;20059;-96
2021/08/24 07:03:15;;;;;;;5.28;2.50;;;15.20;99.90;;;;;;4925645;29;20036;-94
2021/08/24 07:05:44;;;;;;;5.03;3.08;;;15.30;99.90;;;;;;4920744;29;20028;-96
2021/08/24 07:08:10;;;;;;;4.70;2.60;;;15.30;99.90;;;;;;4930396;29;20115;-95
2021/08/24 07:10:36;;;;;;;5.38;2.50;;;15.30;99.90;;;;;;4909601;29;20036;-96
2021/08/24 07:13:02;;;;;;;4.85;2.47;;;15.30;99.90;;;;;;4931890;29;20020;-96
2021/08/24 07:15:28;;;;;;;3.75;2.33;;;15.40;99.90;;;;;;4914972;29;20039;-96
2021/08/24 07:17:56;;;;;;;5.03;1.80;;;15.40;99.90;;;;;;4908675;29;20035;-96
2021/08/24 07:20:24;;;;;;;3.72;2.30;;;15.40;99.90;;;;;;4906843;29;20043;-96
2021/08/24 07:22:50;;;;;;;3.17;2.03;;;15.40;99.90;;;;;;4916213;29;20640;-96
2021/08/24 07:25:22;;;;;;;4.25;2.20;;;15.50;99.90;;;;;;4913874;29;20028;-96
2021/08/24 07:27:49;;;;;;;3.65;2.20;;;15.50;99.90;;;;;;4915493;29;20134;-96
2021/08/24 07:30:15;;;;;;;3.38;1.95;;;15.60;99.90;;;;;;4916422;29;20024;-96
2021/08/24 07:32:42;;;;;;;5.15;1.98;;;15.60;99.90;;;;;;4899977;29;20525;-95
2021/08/24 07:35:08;;;;;;;4.55;2.17;;;15.60;99.90;;;;;;4901633;29;20069;-96
2021/08/24 07:37:34;;;;;;;9.70;2.33;;;15.60;99.90;;;;;;4898459;29;20475;-96
2021/08/24 07:40:00;;;;;;;3.67;1.98;;;15.60;99.90;;;;;;4900595;29;20043;-95
2021/08/24 07:42:26;;;;;;;8.18;2.75;;;15.50;99.90;;;;;;4897193;29;20035;-94
2021/08/24 07:44:52;;;;;;;6.68;3.22;;;15.50;99.90;;;;;;4901514;29;20119;-96
2021/08/24 07:47:20;;;;;;;5.30;3.00;;;15.50;99.90;;;;;;4900524;29;20021;-95
2021/08/24 07:49:47;;;;;;;7.70;3.40;;;15.50;99.90;;;;;;4901832;29;20028;-95
2021/08/24 07:52:14;;;;;;;10.82;3.80;;;15.50;99.90;;;;;;4913173;29;20031;-95
2021/08/24 07:54:40;;;;;;;10.15;4.20;;;15.50;99.90;;;;;;4899775;29;20032;-95
2021/08/24 07:57:06;;;;;;;7.30;3.83;;;15.60;99.90;;;;;;4903243;29;20474;-96
2021/08/24 07:59:32;;;;;;;10.52;5.18;;;15.60;99.90;;;;;;4901049;29;20036;-96
2021/08/24 08:01:59;;;;;;;15.20;5.57;;;15.60;99.90;;;;;;4902143;29;20028;-96
2021/08/24 08:04:29;;;;;;;13.43;6.25;;;15.70;99.90;;;;;;4908745;29;20024;-95
2021/08/24 08:06:55;;;;;;;22.45;8.20;;;15.80;99.90;;;;;;4897727;29;20123;-96
2021/08/24 08:09:24;;;;;;;16.92;7.60;;;15.80;99.90;;;;;;4919578;29;20497;-95
2021/08/24 08:11:52;;;;;;;22.65;8.88;;;15.90;99.90;;;;;;4919771;29;20422;-94
2021/08/24 08:14:18;;;;;;;20.80;7.55;;;15.90;99.90;;;;;;4903994;29;20044;-95
2021/08/24 08:16:45;;;;;;;11.90;4.82;;;15.90;99.90;;;;;;4904252;29;20024;-96
2021/08/24 08:19:11;;;;;;;16.95;4.95;;;16.00;99.90;;;;;;4904124;29;20032;-95
2021/08/24 08:21:38;;;;;;;8.50;4.00;;;16.00;99.90;;;;;;4904056;29;20023;-96
2021/08/24 08:24:05;;;;;;;9.00;3.80;;;16.00;99.90;;;;;;4908710;29;20024;-96
2021/08/24 08:26:32;;;;;;;8.40;3.88;;;16.00;99.90;;;;;;4923761;29;20024;-94
2021/08/24 08:28:58;;;;;;;5.43;3.00;;;16.10;99.90;;;;;;4908578;29;20054;-94
2021/08/24 08:31:25;;;;;;;5.00;2.40;;;16.10;99.90;;;;;;4912894;29;20051;-94
2021/08/24 08:33:51;;;;;;;7.03;2.80;;;16.10;99.90;;;;;;4910485;29;20023;-94
2021/08/24 08:36:17;;;;;;;4.32;2.38;;;16.10;99.90;;;;;;4919214;29;20031;-94
2021/08/24 08:38:44;;;;;;;3.80;2.17;;;16.10;99.90;;;;;;4914318;29;20027;-95
2021/08/24 08:41:13;;;;;;;4.78;1.92;;;16.10;99.90;;;;;;4919643;29;20087;-96
2021/08/24 08:43:59;;;;;;;3.60;1.95;;;16.10;99.90;;;;;;4916668;29;20217;-94
2021/08/24 08:46:49;;;;;;;4.75;1.67;;;16.10;99.90;;;;;;4921205;29;20032;-95
2021/08/24 08:49:44;;;;;;;4.75;1.70;;;16.20;99.90;;;;;;4935078;29;20032;-94
2021/08/24 08:52:33;;;;;;;4.30;2.13;;;16.20;99.90;;;;;;4930656;29;20043;-94
2021/08/24 08:55:04;;;;;;;2.53;1.80;;;16.20;99.90;;;;;;4924598;29;20048;-95
2021/08/24 08:57:41;;;;;;;4.18;2.20;;;16.20;99.90;;;;;;4924143;29;20496;-94
2021/08/24 09:00:14;;;;;;;4.47;2.20;;;16.20;99.90;;;;;;4928595;29;20075;-95
2021/08/24 09:02:48;;;;;;;4.20;2.20;;;16.30;99.90;;;;;;4931895;29;20059;-95
2021/08/24 09:05:17;;;;;;;5.63;2.10;;;16.40;99.90;;;;;;4926427;29;20494;-95
2021/08/24 09:07:48;;;;;;;2.80;1.77;;;16.50;99.90;;;;;;4924981;29;20028;-93
2021/08/24 09:10:25;;;;;;;4.70;2.35;;;16.50;99.90;;;;;;4928218;29;20087;-96
2021/08/24 09:12:59;;;;;;;4.22;2.10;;;16.60;99.90;;;;;;4928297;29;20024;-95
2021/08/24 09:15:48;;;;;;;2.42;1.67;;;16.70;99.90;;;;;;4924537;29;20036;-94
2021/08/24 09:18:45;;;;;;;3.40;1.92;;;16.80;99.90;;;;;;4905545;29;20134;-95
2021/08/24 09:21:27;;;;;;;2.75;1.67;;;16.90;99.90;;;;;;4897285;29;20099;-96
2021/08/24 09:23:55;;;;;;;4.25;1.92;;;16.90;99.90;;;;;;4930857;29;20036;-95
2021/08/24 09:26:28;;;;;;;10.93;1.73;;;17.00;99.90;;;;;;4924204;29;20031;-95
2021/08/24 09:28:56;;;;;;;3.50;1.70;;;17.00;99.90;;;;;;4928056;29;20039;-95
2021/08/24 09:31:25;;;;;;;3.10;1.90;;;17.10;99.90;;;;;;4924554;29;20405;-94
2021/08/24 09:33:52;;;;;;;2.97;1.70;;;17.10;99.90;;;;;;4899969;29;20038;-94
2021/08/24 09:36:19;;;;;;;3.35;2.00;;;17.20;99.90;;;;;;4913850;29;20055;-95
2021/08/24 09:39:00;;;;;;;3.03;1.60;;;17.10;99.90;;;;;;4919753;29;20038;-94
2021/08/24 09:41:33;;;;;;;2.42;1.88;;;17.10;99.90;;;;;;4920343;29;20023;-96
2021/08/24 09:44:22;;;;;;;4.68;2.10;;;17.10;99.90;;;;;;4906564;29;20024;-95
2021/08/24 09:47:09;;;;;;;3.75;2.22;;;17.00;99.90;;;;;;4920568;29;20065;-96
2021/08/24 09:49:39;;;;;;;3.50;2.30;;;17.00;99.90;;;;;;4902056;29;20035;-96
2021/08/24 09:52:19;;;;;;;3.65;2.28;;;17.00;99.90;;;;;;4909024;29;20384;-95
2021/08/24 09:54:57;;;;;;;4.43;2.50;;;16.90;99.90;;;;;;4910223;29;20044;-95
2021/08/24 09:57:30;;;;;;;6.38;3.20;;;17.00;99.90;;;;;;4933082;29;20525;-95
2021/08/24 10:00:15;;;;;;;3.75;2.95;;;16.90;99.90;;;;;;4911353;29;20068;-94
2021/08/24 10:02:53;;;;;;;3.45;2.60;;;17.00;99.90;;;;;;4927358;29;20028;-95
2021/08/24 10:05:21;;;;;;;4.18;2.63;;;17.00;99.90;;;;;;4913072;29;20024;-96
2021/08/24 10:07:51;;;;;;;6.60;3.08;;;17.10;99.90;;;;;;4928915;29;20044;-95
2021/08/24 10:10:38;;;;;;;5.55;3.53;;;17.10;99.90;;;;;;4912906;29;20106;-95
2021/08/24 10:13:42;;;;;;;7.18;3.83;;;17.20;99.90;;;;;;4926474;29;20090;-95
2021/08/24 10:16:11;;;;;;;4.38;3.60;;;17.20;99.90;;;;;;4902787;29;20054;-93
2021/08/24 10:18:38;;;;;;;5.13;3.55;;;17.10;99.90;;;;;;4903080;29;20482;-95
2021/08/24 10:21:51;;;;;;;10.25;4.38;;;17.10;99.90;;;;;;4913018;29;20027;-96
2021/08/24 10:24:26;;;;;;;4.93;4.20;;;17.10;99.90;;;;;;4920856;29;20513;-94
2021/08/24 10:26:56;;;;;;;5.32;4.18;;;17.10;99.90;;;;;;4941428;29;20016;-96
2021/08/24 10:29:28;;;;;;;12.35;4.75;;;17.10;99.90;;;;;;4946474;29;20636;-95
2021/08/24 11:58:23;;;;;;;3.17;2.33;;;18.70;99.90;;;;;;5233680;23;20077;-96
2021/08/24 12:01:34;;;;;;;2.25;2.05;;;18.70;99.90;;;;;;4861393;29;20029;-96
2021/08/24 12:11:49;;;;;;;4.13;2.58;;;18.90;99.90;;;;;;4841231;29;20037;-95
2021/08/24 12:15:02;;;;;;;3.72;2.25;;;18.90;99.90;;;;;;4822602;29;20069;-93
2021/08/24 12:18:08;;;;;;;6.57;3.55;;;18.90;99.90;;;;;;4786941;30;20071;-94
2021/08/24 12:21:32;;;;;;;3.75;3.30;;;18.90;99.90;;;;;;4772865;30;20067;-93
2021/08/24 12:28:03;;;;;;;4.63;3.15;;;19.00;99.90;;;;;;4697406;30;20048;-92
2021/08/24 12:31:14;;;;;;;4.05;2.83;;;19.10;99.90;;;;;;4684413;30;20433;-93
2021/08/24 12:33:47;;;;;;;4.65;2.63;;;19.10;99.90;;;;;;4683350;30;20052;-93
2021/08/24 12:36:27;;;;;;;5.88;3.13;;;19.10;99.90;;;;;;4688765;30;20034;-94
2021/08/24 12:39:35;;;;;;;3.95;3.00;;;19.10;99.90;;;;;;4759256;30;20419;-94
2021/08/24 12:43:20;;;;;;;;;;;;;;;;;;;;;
2021/08/24 12:52:39;;;;;;;6.35;3.05;;;19.20;99.90;;;;;;4725062;30;20120;-95
2021/08/24 12:56:07;;;;;;;5.60;3.33;;;19.40;99.90;;;;;;4702291;30;20084;-95
2021/08/24 12:59:01;;;;;;;6.10;3.80;;;19.50;99.90;;;;;;4720498;30;20048;-93
2021/08/24 13:01:48;;;;;;;7.05;3.80;;;19.40;99.90;;;;;;4786571;29;20133;-95
2021/08/24 13:05:36;;;;;;;;;;;;;;;;;;;;;
2021/08/24 13:11:49;;;;;;;;;;;;;;;;;;;;;
2021/08/24 13:21:54;;;;;;;4.78;3.00;;;19.30;99.90;;;;;;4767524;30;20089;-95
2021/08/24 13:25:24;;;;;;;4.10;3.10;;;19.30;99.90;;;;;;4771030;30;20099;-95
2021/08/24 13:32:19;;;;;;;;;;;;;;;;;;;;;
2021/08/24 13:42:12;;;;;;;5.53;3.95;;;19.00;99.90;;;;;;4729160;30;20167;-95
2021/08/24 13:44:43;;;;;;;11.50;4.10;;;19.10;99.90;;;;;;4706780;30;20032;-91
2021/08/24 13:47:23;;;;;;;5.38;3.70;;;19.10;99.90;;;;;;4746117;29;20112;-92
2021/08/24 13:50:00;;;;;;;7.43;4.33;;;19.10;99.90;;;;;;4835246;29;20030;-93
2021/08/24 13:52:38;;;;;;;5.38;3.95;;;19.10;99.90;;;;;;4827945;29;20287;-92
2021/08/24 13:55:29;;;;;;;7.30;4.32;;;19.10;99.90;;;;;;4836233;29;20048;-92
2021/08/24 13:57:55;;;;;;;8.88;4.30;;;19.10;99.90;;;;;;4865317;29;20052;-92
2021/08/24 14:00:28;;;;;;;7.55;4.13;;;19.10;99.90;;;;;;4923080;29;20028;-90
2021/08/24 14:03:01;;;;;;;5.45;3.72;;;19.20;99.90;;;;;;4922525;29;20039;-93
2021/08/24 14:05:28;;;;;;;7.25;3.78;;;19.20;99.90;;;;;;4923562;29;20040;-89
2021/08/24 14:07:56;;;;;;;5.40;3.10;;;19.20;99.90;;;;;;4922891;29;20032;-91
2021/08/24 14:10:24;;;;;;;5.68;3.25;;;19.20;99.90;;;;;;4922375;29;20566;-91
2021/08/24 14:12:59;;;;;;;5.38;2.65;;;19.20;99.90;;;;;;4922183;29;20099;-92
2021/08/24 14:23:45;;;;;;;;;;;;;;;;;;;;;
2021/08/24 16:00:54;;;;;;;4.78;2.50;;;19.60;98.50;;;;;;4920069;29;20044;-91
2021/08/24 16:03:20;;;;;;;5.88;2.50;;;19.60;98.70;;;;;;4902005;29;20470;-92
2021/08/24 16:05:47;;;;;;;3.25;2.30;;;19.50;98.90;;;;;;4901323;29;20032;-89
2021/08/24 16:08:13;;;;;;;5.90;2.90;;;19.50;99.00;;;;;;4900659;29;20020;-90
2021/08/24 16:10:42;;;;;;;5.53;2.67;;;19.50;99.00;;;;;;4901951;29;20035;-89
2021/08/24 16:13:15;;;;;;;4.93;2.90;;;19.50;99.00;;;;;;4900871;29;20024;-92
2021/08/24 16:15:44;;;;;;;3.95;2.40;;;19.50;99.10;;;;;;4902115;29;20036;-89
2021/08/24 16:18:29;;;;;;;6.00;2.45;;;19.50;99.10;;;;;;4885217;29;20028;-91
2021/08/24 16:20:55;;;;;;;5.55;2.47;;;19.60;99.20;;;;;;4901073;29;20043;-90
2021/08/24 16:23:23;;;;;;;7.38;3.95;;;19.60;99.30;;;;;;4898019;29;20471;-90
2021/08/24 16:25:49;;;;;;;9.27;3.50;;;19.60;99.30;;;;;;4883583;29;20390;-90
2021/08/24 16:28:14;;;;;;;6.35;3.05;;;19.70;99.20;;;;;;4884172;29;20392;-90
2021/08/24 16:30:40;;;;;;;4.80;3.20;;;19.70;99.20;;;;;;4879972;29;20024;-91
2021/08/24 16:33:06;;;;;;;3.92;3.22;;;19.70;99.30;;;;;;4882682;29;20127;-89
2021/08/24 16:35:43;;;;;;;3.42;2.60;;;19.70;99.20;;;;;;4883616;29;20044;-89
2021/08/24 16:38:21;;;;;;;4.07;3.22;;;19.70;99.10;;;;;;4881930;29;20051;-89
2021/08/24 16:43:46;;;;;;;6.18;3.95;;;19.60;99.20;;;;;;4839859;29;20090;-95
2021/08/24 16:51:03;;;;;;;7.28;3.58;;;19.70;99.30;;;;;;4867940;29;20032;-91
2021/08/24 16:53:28;;;;;;;5.57;4.15;;;19.70;99.20;;;;;;4891164;29;20039;-91
2021/08/24 16:55:54;;;;;;;5.47;3.72;;;19.70;99.20;;;;;;4895446;29;20055;-91
2021/08/24 16:58:20;;;;;;;5.43;3.95;;;19.70;99.20;;;;;;4892385;29;20491;-91
2021/08/24 17:00:46;;;;;;;8.68;4.35;;;19.60;99.10;;;;;;4891166;29;20091;-90
2021/08/24 17:03:12;;;;;;;4.35;3.45;;;19.60;99.20;;;;;;4892892;29;20058;-90
2021/08/24 17:05:38;;;;;;;6.40;3.50;;;19.50;99.30;;;;;;4890974;29;20525;-89
2021/08/24 17:08:05;;;;;;;6.63;3.50;;;19.50;99.40;;;;;;4890045;29;20028;-90
2021/08/24 17:10:40;;;;;;;4.63;3.75;;;19.50;99.40;;;;;;4895555;29;20031;-90
2021/08/24 17:13:09;;;;;;;6.63;4.18;;;19.40;99.40;;;;;;4904374;29;20025;-89
2021/08/24 17:15:37;;;;;;;4.65;3.85;;;19.40;99.60;;;;;;4912273;29;20099;-91